sensor_id;sensor_type;location;lat;lon;timestamp;P1;durP1;ratioP1;P2;durP2;ratioP2
79478;SDS011;68943;49.472;17.970;2023-04-24T00:00:57;6.97;;;3.97;;
79478;SDS011;68943;49.472;17.970;2023-04-24T00:03:26;4.32;;;3.03;;
79478;SDS011;68943;49.472;17.970;2023-04-24T00:05:53;4.40;;;2.95;;
79478;SDS011;68943;49.472;17.970;2023-04-24T00:08:19;5.03;;;3.13;;
79478;SDS011;68943;49.472;17.970;2023-04-24T00:10:47;3.83;;;2.38;;
79478;SDS011;68943;49.472;17.970;2023-04-24T00:13:13;6.20;;;2.92;;
79478;SDS011;68943;49.472;17.970;2023-04-24T00:15:39;5.20;;;2.95;;
79478;SDS011;68943;49.472;17.970;2023-04-24T00:18:05;4.43;;;2.55;;
79478;SDS011;68943;49.472;17.970;2023-04-24T00:20:31;7.25;;;2.97;;
79478;SDS011;68943;49.472;17.970;2023-04-24T00:22:58;5.07;;;3.28;;
79478;SDS011;68943;49.472;17.970;2023-04-24T00:25:24;4.00;;;2.90;;
79478;SDS011;68943;49.472;17.970;2023-04-24T00:27:50;5.25;;;3.72;;
79478;SDS011;68943;49.472;17.970;2023-04-24T00:30:16;5.93;;;3.53;;
79478;SDS011;68943;49.472;17.970;2023-04-24T00:32:42;9.82;;;3.72;;
79478;SDS011;68943;49.472;17.970;2023-04-24T00:35:08;5.22;;;3.13;;
79478;SDS011;68943;49.472;17.970;2023-04-24T00:37:35;4.80;;;3.08;;
79478;SDS011;68943;49.472;17.970;2023-04-24T00:40:01;6.80;;;3.65;;
79478;SDS011;68943;49.472;17.970;2023-04-24T00:42:28;6.28;;;3.60;;
79478;SDS011;68943;49.472;17.970;2023-04-24T00:44:54;6.32;;;3.50;;
79478;SDS011;68943;49.472;17.970;2023-04-24T00:47:20;4.63;;;2.78;;
79478;SDS011;68943;49.472;17.970;2023-04-24T00:49:46;4.97;;;3.38;;
79478;SDS011;68943;49.472;17.970;2023-04-24T00:52:12;7.03;;;3.70;;
79478;SDS011;68943;49.472;17.970;2023-04-24T00:54:42;9.23;;;3.53;;
79478;SDS011;68943;49.472;17.970;2023-04-24T00:57:08;5.10;;;3.58;;
79478;SDS011;68943;49.472;17.970;2023-04-24T00:59:35;8.88;;;4.25;;
79478;SDS011;68943;49.472;17.970;2023-04-24T01:02:01;4.35;;;3.40;;
79478;SDS011;68943;49.472;17.970;2023-04-24T01:04:28;5.28;;;3.70;;
79478;SDS011;68943;49.472;17.970;2023-04-24T01:06:54;6.68;;;4.88;;
79478;SDS011;68943;49.472;17.970;2023-04-24T01:09:21;5.47;;;3.38;;
79478;SDS011;68943;49.472;17.970;2023-04-24T01:11:49;4.70;;;3.53;;
79478;SDS011;68943;49.472;17.970;2023-04-24T01:14:15;6.35;;;3.42;;
79478;SDS011;68943;49.472;17.970;2023-04-24T01:16:42;6.25;;;3.38;;
79478;SDS011;68943;49.472;17.970;2023-04-24T01:19:08;5.68;;;3.35;;
79478;SDS011;68943;49.472;17.970;2023-04-24T01:21:36;5.55;;;3.70;;
79478;SDS011;68943;49.472;17.970;2023-04-24T01:24:06;8.45;;;3.58;;
79478;SDS011;68943;49.472;17.970;2023-04-24T01:26:32;5.07;;;3.58;;
79478;SDS011;68943;49.472;17.970;2023-04-24T01:28:59;7.28;;;4.45;;
79478;SDS011;68943;49.472;17.970;2023-04-24T01:31:25;5.53;;;3.40;;
79478;SDS011;68943;49.472;17.970;2023-04-24T01:33:51;4.95;;;3.60;;
79478;SDS011;68943;49.472;17.970;2023-04-24T01:36:18;4.43;;;3.15;;
79478;SDS011;68943;49.472;17.970;2023-04-24T01:38:44;5.95;;;3.03;;
79478;SDS011;68943;49.472;17.970;2023-04-24T01:41:10;9.45;;;3.90;;
79478;SDS011;68943;49.472;17.970;2023-04-24T01:43:37;7.13;;;3.35;;
79478;SDS011;68943;49.472;17.970;2023-04-24T01:46:03;4.35;;;3.00;;
79478;SDS011;68943;49.472;17.970;2023-04-24T01:48:29;7.00;;;3.67;;
79478;SDS011;68943;49.472;17.970;2023-04-24T01:50:56;5.43;;;3.58;;
79478;SDS011;68943;49.472;17.970;2023-04-24T01:53:22;6.43;;;3.13;;
79478;SDS011;68943;49.472;17.970;2023-04-24T01:55:48;5.20;;;2.97;;
79478;SDS011;68943;49.472;17.970;2023-04-24T01:58:14;5.15;;;2.92;;
79478;SDS011;68943;49.472;17.970;2023-04-24T02:00:40;6.65;;;4.13;;
79478;SDS011;68943;49.472;17.970;2023-04-24T02:03:06;4.75;;;3.20;;
79478;SDS011;68943;49.472;17.970;2023-04-24T02:05:33;6.78;;;3.63;;
79478;SDS011;68943;49.472;17.970;2023-04-24T02:07:59;9.68;;;4.50;;
79478;SDS011;68943;49.472;17.970;2023-04-24T02:10:25;4.78;;;3.65;;
79478;SDS011;68943;49.472;17.970;2023-04-24T02:12:51;5.40;;;3.53;;
79478;SDS011;68943;49.472;17.970;2023-04-24T02:15:17;6.53;;;3.75;;
79478;SDS011;68943;49.472;17.970;2023-04-24T02:17:43;6.55;;;3.85;;
79478;SDS011;68943;49.472;17.970;2023-04-24T02:20:09;5.63;;;3.75;;
79478;SDS011;68943;49.472;17.970;2023-04-24T02:22:35;11.30;;;4.85;;
79478;SDS011;68943;49.472;17.970;2023-04-24T02:25:01;7.47;;;5.10;;
79478;SDS011;68943;49.472;17.970;2023-04-24T02:27:27;7.07;;;4.80;;
79478;SDS011;68943;49.472;17.970;2023-04-24T02:29:53;6.00;;;4.72;;
79478;SDS011;68943;49.472;17.970;2023-04-24T02:32:20;10.55;;;4.45;;
79478;SDS011;68943;49.472;17.970;2023-04-24T02:34:46;6.88;;;4.72;;
79478;SDS011;68943;49.472;17.970;2023-04-24T02:37:12;7.28;;;4.70;;
79478;SDS011;68943;49.472;17.970;2023-04-24T02:39:38;7.55;;;5.78;;
79478;SDS011;68943;49.472;17.970;2023-04-24T02:42:04;7.80;;;4.75;;
79478;SDS011;68943;49.472;17.970;2023-04-24T02:44:30;6.65;;;4.72;;
79478;SDS011;68943;49.472;17.970;2023-04-24T02:46:56;8.00;;;4.32;;
79478;SDS011;68943;49.472;17.970;2023-04-24T02:49:22;8.27;;;4.05;;
79478;SDS011;68943;49.472;17.970;2023-04-24T02:51:48;8.88;;;4.05;;
79478;SDS011;68943;49.472;17.970;2023-04-24T02:54:14;6.35;;;4.00;;
79478;SDS011;68943;49.472;17.970;2023-04-24T02:56:40;5.70;;;4.25;;
79478;SDS011;68943;49.472;17.970;2023-04-24T02:59:06;6.60;;;4.20;;
79478;SDS011;68943;49.472;17.970;2023-04-24T03:01:32;6.78;;;3.55;;
79478;SDS011;68943;49.472;17.970;2023-04-24T03:03:58;6.10;;;4.18;;
79478;SDS011;68943;49.472;17.970;2023-04-24T03:06:24;8.68;;;5.32;;
79478;SDS011;68943;49.472;17.970;2023-04-24T03:08:52;11.05;;;7.00;;
79478;SDS011;68943;49.472;17.970;2023-04-24T03:11:18;4.90;;;3.60;;
79478;SDS011;68943;49.472;17.970;2023-04-24T03:13:44;8.77;;;4.70;;
79478;SDS011;68943;49.472;17.970;2023-04-24T03:16:10;7.40;;;3.67;;
79478;SDS011;68943;49.472;17.970;2023-04-24T03:18:37;5.20;;;3.85;;
79478;SDS011;68943;49.472;17.970;2023-04-24T03:21:03;7.50;;;4.72;;
79478;SDS011;68943;49.472;17.970;2023-04-24T03:23:29;5.28;;;4.15;;
79478;SDS011;68943;49.472;17.970;2023-04-24T03:25:55;8.52;;;4.47;;
79478;SDS011;68943;49.472;17.970;2023-04-24T03:28:21;9.90;;;4.63;;
79478;SDS011;68943;49.472;17.970;2023-04-24T03:30:47;7.78;;;6.00;;
79478;SDS011;68943;49.472;17.970;2023-04-24T03:33:13;7.43;;;4.20;;
79478;SDS011;68943;49.472;17.970;2023-04-24T03:35:39;8.93;;;5.68;;
79478;SDS011;68943;49.472;17.970;2023-04-24T03:38:06;14.20;;;5.55;;
79478;SDS011;68943;49.472;17.970;2023-04-24T03:40:32;8.18;;;4.60;;
79478;SDS011;68943;49.472;17.970;2023-04-24T03:42:58;10.77;;;4.93;;
79478;SDS011;68943;49.472;17.970;2023-04-24T03:45:24;5.88;;;5.03;;
79478;SDS011;68943;49.472;17.970;2023-04-24T03:47:50;6.00;;;5.05;;
79478;SDS011;68943;49.472;17.970;2023-04-24T03:50:16;9.30;;;5.50;;
79478;SDS011;68943;49.472;17.970;2023-04-24T03:52:42;10.00;;;4.75;;
79478;SDS011;68943;49.472;17.970;2023-04-24T03:55:08;8.85;;;5.32;;
79478;SDS011;68943;49.472;17.970;2023-04-24T03:57:37;8.52;;;6.18;;
79478;SDS011;68943;49.472;17.970;2023-04-24T04:00:03;7.55;;;3.92;;
79478;SDS011;68943;49.472;17.970;2023-04-24T04:02:30;6.13;;;4.45;;
79478;SDS011;68943;49.472;17.970;2023-04-24T04:04:56;10.60;;;4.93;;
79478;SDS011;68943;49.472;17.970;2023-04-24T04:07:22;11.43;;;4.95;;
79478;SDS011;68943;49.472;17.970;2023-04-24T04:09:48;8.63;;;3.92;;
79478;SDS011;68943;49.472;17.970;2023-04-24T04:12:14;6.93;;;4.72;;
79478;SDS011;68943;49.472;17.970;2023-04-24T04:14:40;8.80;;;4.15;;
79478;SDS011;68943;49.472;17.970;2023-04-24T04:17:06;9.27;;;5.05;;
79478;SDS011;68943;49.472;17.970;2023-04-24T04:19:32;11.00;;;4.65;;
79478;SDS011;68943;49.472;17.970;2023-04-24T04:21:58;8.75;;;4.55;;
79478;SDS011;68943;49.472;17.970;2023-04-24T04:24:24;5.55;;;4.75;;
79478;SDS011;68943;49.472;17.970;2023-04-24T04:26:51;7.60;;;4.30;;
79478;SDS011;68943;49.472;17.970;2023-04-24T04:29:17;7.97;;;5.20;;
79478;SDS011;68943;49.472;17.970;2023-04-24T04:31:43;7.78;;;4.75;;
79478;SDS011;68943;49.472;17.970;2023-04-24T04:34:09;6.78;;;4.43;;
79478;SDS011;68943;49.472;17.970;2023-04-24T04:36:36;6.65;;;4.55;;
79478;SDS011;68943;49.472;17.970;2023-04-24T04:39:05;5.78;;;4.60;;
79478;SDS011;68943;49.472;17.970;2023-04-24T04:41:31;10.05;;;5.47;;
79478;SDS011;68943;49.472;17.970;2023-04-24T04:43:57;8.15;;;4.43;;
79478;SDS011;68943;49.472;17.970;2023-04-24T04:46:23;8.27;;;4.80;;
79478;SDS011;68943;49.472;17.970;2023-04-24T04:48:51;7.68;;;4.63;;
79478;SDS011;68943;49.472;17.970;2023-04-24T04:51:17;10.15;;;4.75;;
79478;SDS011;68943;49.472;17.970;2023-04-24T04:53:43;8.70;;;4.55;;
79478;SDS011;68943;49.472;17.970;2023-04-24T04:56:09;8.95;;;4.40;;
79478;SDS011;68943;49.472;17.970;2023-04-24T04:58:35;7.70;;;4.50;;
79478;SDS011;68943;49.472;17.970;2023-04-24T05:01:01;7.88;;;4.55;;
79478;SDS011;68943;49.472;17.970;2023-04-24T05:03:27;9.02;;;5.35;;
79478;SDS011;68943;49.472;17.970;2023-04-24T05:05:53;9.95;;;5.10;;
79478;SDS011;68943;49.472;17.970;2023-04-24T05:08:19;8.32;;;4.70;;
79478;SDS011;68943;49.472;17.970;2023-04-24T05:10:45;13.70;;;4.97;;
79478;SDS011;68943;49.472;17.970;2023-04-24T05:13:11;12.50;;;4.70;;
79478;SDS011;68943;49.472;17.970;2023-04-24T05:15:38;13.52;;;5.68;;
79478;SDS011;68943;49.472;17.970;2023-04-24T05:18:04;8.13;;;5.00;;
79478;SDS011;68943;49.472;17.970;2023-04-24T05:20:30;10.15;;;4.90;;
79478;SDS011;68943;49.472;17.970;2023-04-24T05:22:56;10.27;;;4.43;;
79478;SDS011;68943;49.472;17.970;2023-04-24T05:25:22;10.20;;;4.15;;
79478;SDS011;68943;49.472;17.970;2023-04-24T05:27:48;10.05;;;4.82;;
79478;SDS011;68943;49.472;17.970;2023-04-24T05:30:14;6.22;;;3.63;;
79478;SDS011;68943;49.472;17.970;2023-04-24T05:32:40;7.95;;;4.07;;
79478;SDS011;68943;49.472;17.970;2023-04-24T05:35:06;9.25;;;4.05;;
79478;SDS011;68943;49.472;17.970;2023-04-24T05:37:32;6.55;;;4.22;;
79478;SDS011;68943;49.472;17.970;2023-04-24T05:39:58;8.00;;;4.97;;
79478;SDS011;68943;49.472;17.970;2023-04-24T05:42:24;6.32;;;4.25;;
79478;SDS011;68943;49.472;17.970;2023-04-24T05:44:50;7.35;;;5.35;;
79478;SDS011;68943;49.472;17.970;2023-04-24T05:47:18;8.30;;;4.93;;
79478;SDS011;68943;49.472;17.970;2023-04-24T05:49:46;8.20;;;4.78;;
79478;SDS011;68943;49.472;17.970;2023-04-24T05:52:12;14.07;;;5.57;;
79478;SDS011;68943;49.472;17.970;2023-04-24T05:54:38;16.17;;;5.68;;
79478;SDS011;68943;49.472;17.970;2023-04-24T05:57:04;14.20;;;5.97;;
79478;SDS011;68943;49.472;17.970;2023-04-24T05:59:33;12.25;;;6.25;;
79478;SDS011;68943;49.472;17.970;2023-04-24T06:01:59;8.57;;;5.97;;
79478;SDS011;68943;49.472;17.970;2023-04-24T06:04:25;16.88;;;6.65;;
79478;SDS011;68943;49.472;17.970;2023-04-24T06:06:51;11.95;;;6.47;;
79478;SDS011;68943;49.472;17.970;2023-04-24T06:09:21;23.30;;;7.25;;
79478;SDS011;68943;49.472;17.970;2023-04-24T06:11:49;12.30;;;6.88;;
79478;SDS011;68943;49.472;17.970;2023-04-24T06:14:17;11.32;;;6.20;;
79478;SDS011;68943;49.472;17.970;2023-04-24T06:16:43;11.90;;;7.72;;
79478;SDS011;68943;49.472;17.970;2023-04-24T06:19:09;11.02;;;7.25;;
79478;SDS011;68943;49.472;17.970;2023-04-24T06:21:35;12.40;;;8.30;;
79478;SDS011;68943;49.472;17.970;2023-04-24T06:24:03;9.20;;;6.47;;
79478;SDS011;68943;49.472;17.970;2023-04-24T06:26:32;11.15;;;6.93;;
79478;SDS011;68943;49.472;17.970;2023-04-24T06:28:58;11.68;;;7.90;;
79478;SDS011;68943;49.472;17.970;2023-04-24T06:31:25;12.70;;;7.22;;
79478;SDS011;68943;49.472;17.970;2023-04-24T06:33:51;10.55;;;8.05;;
79478;SDS011;68943;49.472;17.970;2023-04-24T06:36:17;12.88;;;7.50;;
79478;SDS011;68943;49.472;17.970;2023-04-24T06:38:43;8.85;;;6.13;;
79478;SDS011;68943;49.472;17.970;2023-04-24T06:41:09;11.50;;;6.63;;
79478;SDS011;68943;49.472;17.970;2023-04-24T06:43:35;8.98;;;6.40;;
79478;SDS011;68943;49.472;17.970;2023-04-24T06:46:01;9.60;;;6.68;;
79478;SDS011;68943;49.472;17.970;2023-04-24T06:48:28;9.07;;;6.57;;
79478;SDS011;68943;49.472;17.970;2023-04-24T06:50:54;10.00;;;7.00;;
79478;SDS011;68943;49.472;17.970;2023-04-24T06:53:22;17.58;;;6.57;;
79478;SDS011;68943;49.472;17.970;2023-04-24T06:55:48;8.32;;;5.40;;
79478;SDS011;68943;49.472;17.970;2023-04-24T06:58:14;13.15;;;9.00;;
79478;SDS011;68943;49.472;17.970;2023-04-24T07:00:40;9.55;;;7.53;;
79478;SDS011;68943;49.472;17.970;2023-04-24T07:03:07;11.13;;;8.32;;
79478;SDS011;68943;49.472;17.970;2023-04-24T07:05:33;7.90;;;6.25;;
79478;SDS011;68943;49.472;17.970;2023-04-24T07:08:00;8.15;;;6.85;;
79478;SDS011;68943;49.472;17.970;2023-04-24T07:10:26;13.32;;;6.90;;
79478;SDS011;68943;49.472;17.970;2023-04-24T07:12:53;7.13;;;5.72;;
79478;SDS011;68943;49.472;17.970;2023-04-24T07:15:19;6.90;;;5.50;;
79478;SDS011;68943;49.472;17.970;2023-04-24T07:17:45;9.35;;;6.35;;
79478;SDS011;68943;49.472;17.970;2023-04-24T07:20:11;11.30;;;8.10;;
79478;SDS011;68943;49.472;17.970;2023-04-24T07:22:39;12.82;;;8.05;;
79478;SDS011;68943;49.472;17.970;2023-04-24T07:25:06;13.77;;;10.93;;
79478;SDS011;68943;49.472;17.970;2023-04-24T07:27:33;12.23;;;8.55;;
79478;SDS011;68943;49.472;17.970;2023-04-24T07:29:59;19.08;;;7.50;;
79478;SDS011;68943;49.472;17.970;2023-04-24T07:32:26;9.30;;;5.38;;
79478;SDS011;68943;49.472;17.970;2023-04-24T07:34:52;9.50;;;5.10;;
79478;SDS011;68943;49.472;17.970;2023-04-24T07:37:18;6.53;;;4.97;;
79478;SDS011;68943;49.472;17.970;2023-04-24T07:39:44;7.93;;;4.78;;
79478;SDS011;68943;49.472;17.970;2023-04-24T07:42:10;10.35;;;5.72;;
79478;SDS011;68943;49.472;17.970;2023-04-24T07:44:36;7.63;;;5.28;;
79478;SDS011;68943;49.472;17.970;2023-04-24T07:47:02;7.35;;;5.28;;
79478;SDS011;68943;49.472;17.970;2023-04-24T07:49:28;11.25;;;5.53;;
79478;SDS011;68943;49.472;17.970;2023-04-24T07:51:54;8.90;;;5.25;;
79478;SDS011;68943;49.472;17.970;2023-04-24T07:54:20;8.45;;;5.10;;
79478;SDS011;68943;49.472;17.970;2023-04-24T07:56:47;9.60;;;6.25;;
79478;SDS011;68943;49.472;17.970;2023-04-24T07:59:14;11.25;;;6.05;;
79478;SDS011;68943;49.472;17.970;2023-04-24T08:01:40;8.88;;;5.03;;
79478;SDS011;68943;49.472;17.970;2023-04-24T08:04:07;5.28;;;3.90;;
79478;SDS011;68943;49.472;17.970;2023-04-24T08:06:33;6.60;;;4.45;;
79478;SDS011;68943;49.472;17.970;2023-04-24T08:08:59;7.93;;;4.90;;
79478;SDS011;68943;49.472;17.970;2023-04-24T08:11:25;8.98;;;5.03;;
79478;SDS011;68943;49.472;17.970;2023-04-24T08:13:55;10.18;;;4.82;;
79478;SDS011;68943;49.472;17.970;2023-04-24T08:16:22;5.75;;;3.85;;
79478;SDS011;68943;49.472;17.970;2023-04-24T08:18:51;5.22;;;3.72;;
79478;SDS011;68943;49.472;17.970;2023-04-24T08:21:17;6.80;;;4.65;;
79478;SDS011;68943;49.472;17.970;2023-04-24T08:23:44;5.50;;;3.53;;
79478;SDS011;68943;49.472;17.970;2023-04-24T08:26:10;5.43;;;3.50;;
79478;SDS011;68943;49.472;17.970;2023-04-24T08:28:37;6.57;;;3.38;;
79478;SDS011;68943;49.472;17.970;2023-04-24T08:31:03;7.55;;;3.70;;
79478;SDS011;68943;49.472;17.970;2023-04-24T08:33:29;8.90;;;4.13;;
79478;SDS011;68943;49.472;17.970;2023-04-24T08:36:04;6.28;;;3.85;;
79478;SDS011;68943;49.472;17.970;2023-04-24T08:38:31;4.65;;;3.30;;
79478;SDS011;68943;49.472;17.970;2023-04-24T08:40:58;9.05;;;4.68;;
79478;SDS011;68943;49.472;17.970;2023-04-24T08:43:24;4.90;;;2.95;;
79478;SDS011;68943;49.472;17.970;2023-04-24T08:45:51;5.90;;;3.47;;
79478;SDS011;68943;49.472;17.970;2023-04-24T08:48:17;9.63;;;4.68;;
79478;SDS011;68943;49.472;17.970;2023-04-24T08:50:44;5.63;;;3.53;;
79478;SDS011;68943;49.472;17.970;2023-04-24T08:53:10;9.75;;;3.75;;
79478;SDS011;68943;49.472;17.970;2023-04-24T08:55:37;4.53;;;3.22;;
79478;SDS011;68943;49.472;17.970;2023-04-24T08:58:03;5.07;;;4.22;;
79478;SDS011;68943;49.472;17.970;2023-04-24T09:00:30;4.55;;;3.80;;
79478;SDS011;68943;49.472;17.970;2023-04-24T09:02:56;5.57;;;4.30;;
79478;SDS011;68943;49.472;17.970;2023-04-24T09:05:23;4.18;;;3.30;;
79478;SDS011;68943;49.472;17.970;2023-04-24T09:07:53;6.13;;;3.45;;
79478;SDS011;68943;49.472;17.970;2023-04-24T09:10:20;4.93;;;4.07;;
79478;SDS011;68943;49.472;17.970;2023-04-24T09:12:47;5.32;;;3.75;;
79478;SDS011;68943;49.472;17.970;2023-04-24T09:15:13;6.88;;;4.00;;
79478;SDS011;68943;49.472;17.970;2023-04-24T09:17:39;5.68;;;3.97;;
79478;SDS011;68943;49.472;17.970;2023-04-24T09:20:05;5.53;;;3.53;;
79478;SDS011;68943;49.472;17.970;2023-04-24T09:22:31;4.78;;;4.32;;
79478;SDS011;68943;49.472;17.970;2023-04-24T09:25:04;10.38;;;5.85;;
79478;SDS011;68943;49.472;17.970;2023-04-24T09:27:32;5.80;;;4.97;;
79478;SDS011;68943;49.472;17.970;2023-04-24T09:29:58;5.60;;;3.55;;
79478;SDS011;68943;49.472;17.970;2023-04-24T09:32:24;5.38;;;4.57;;
79478;SDS011;68943;49.472;17.970;2023-04-24T09:37:37;5.20;;;3.88;;
79478;SDS011;68943;49.472;17.970;2023-04-24T09:40:22;9.85;;;4.15;;
79478;SDS011;68943;49.472;17.970;2023-04-24T09:42:52;5.70;;;4.00;;
79478;SDS011;68943;49.472;17.970;2023-04-24T09:45:18;5.00;;;4.03;;
79478;SDS011;68943;49.472;17.970;2023-04-24T09:47:44;6.22;;;4.35;;
79478;SDS011;68943;49.472;17.970;2023-04-24T09:50:11;7.28;;;4.78;;
79478;SDS011;68943;49.472;17.970;2023-04-24T09:52:41;8.18;;;5.00;;
79478;SDS011;68943;49.472;17.970;2023-04-24T09:55:16;5.43;;;3.85;;
79478;SDS011;68943;49.472;17.970;2023-04-24T10:00:19;11.23;;;4.53;;
79478;SDS011;68943;49.472;17.970;2023-04-24T10:02:50;4.53;;;3.53;;
79478;SDS011;68943;49.472;17.970;2023-04-24T10:05:17;7.95;;;4.63;;
79478;SDS011;68943;49.472;17.970;2023-04-24T10:07:43;6.93;;;5.13;;
79478;SDS011;68943;49.472;17.970;2023-04-24T10:10:10;9.85;;;6.05;;
79478;SDS011;68943;49.472;17.970;2023-04-24T10:12:36;7.35;;;4.95;;
79478;SDS011;68943;49.472;17.970;2023-04-24T10:15:03;8.77;;;5.30;;
79478;SDS011;68943;49.472;17.970;2023-04-24T10:17:30;7.60;;;4.55;;
79478;SDS011;68943;49.472;17.970;2023-04-24T10:19:56;8.80;;;5.90;;
79478;SDS011;68943;49.472;17.970;2023-04-24T10:22:23;7.53;;;4.85;;
79478;SDS011;68943;49.472;17.970;2023-04-24T10:24:50;6.75;;;5.18;;
79478;SDS011;68943;49.472;17.970;2023-04-24T10:27:17;7.38;;;5.55;;
79478;SDS011;68943;49.472;17.970;2023-04-24T10:29:43;10.40;;;5.30;;
79478;SDS011;68943;49.472;17.970;2023-04-24T10:32:11;7.38;;;6.15;;
79478;SDS011;68943;49.472;17.970;2023-04-24T10:34:37;7.75;;;4.95;;
79478;SDS011;68943;49.472;17.970;2023-04-24T10:37:03;8.30;;;4.60;;
79478;SDS011;68943;49.472;17.970;2023-04-24T10:39:29;6.43;;;4.00;;
79478;SDS011;68943;49.472;17.970;2023-04-24T10:44:24;9.80;;;4.78;;
79478;SDS011;68943;49.472;17.970;2023-04-24T10:46:54;8.38;;;4.43;;
79478;SDS011;68943;49.472;17.970;2023-04-24T10:49:27;7.90;;;4.75;;
79478;SDS011;68943;49.472;17.970;2023-04-24T10:51:54;8.48;;;5.50;;
79478;SDS011;68943;49.472;17.970;2023-04-24T10:54:26;6.60;;;4.68;;
79478;SDS011;68943;49.472;17.970;2023-04-24T10:56:53;6.45;;;4.38;;
79478;SDS011;68943;49.472;17.970;2023-04-24T10:59:39;7.75;;;5.30;;
79478;SDS011;68943;49.472;17.970;2023-04-24T11:02:07;7.65;;;5.50;;
79478;SDS011;68943;49.472;17.970;2023-04-24T11:04:33;7.47;;;5.38;;
79478;SDS011;68943;49.472;17.970;2023-04-24T11:07:02;8.57;;;5.45;;
79478;SDS011;68943;49.472;17.970;2023-04-24T11:09:30;16.73;;;5.95;;
79478;SDS011;68943;49.472;17.970;2023-04-24T11:12:09;9.10;;;5.53;;
79478;SDS011;68943;49.472;17.970;2023-04-24T11:17:35;8.85;;;4.78;;
79478;SDS011;68943;49.472;17.970;2023-04-24T11:20:06;9.55;;;5.70;;
79478;SDS011;68943;49.472;17.970;2023-04-24T11:22:34;13.00;;;8.43;;
79478;SDS011;68943;49.472;17.970;2023-04-24T11:25:00;8.27;;;4.32;;
79478;SDS011;68943;49.472;17.970;2023-04-24T11:27:29;5.68;;;3.60;;
79478;SDS011;68943;49.472;17.970;2023-04-24T11:34:54;16.05;;;11.05;;
79478;SDS011;68943;49.472;17.970;2023-04-24T11:37:21;18.17;;;16.42;;
79478;SDS011;68943;49.472;17.970;2023-04-24T11:39:52;6.05;;;4.82;;
79478;SDS011;68943;49.472;17.970;2023-04-24T11:42:18;16.63;;;5.95;;
79478;SDS011;68943;49.472;17.970;2023-04-24T11:44:45;6.07;;;4.40;;
79478;SDS011;68943;49.472;17.970;2023-04-24T11:47:12;7.72;;;4.40;;
79478;SDS011;68943;49.472;17.970;2023-04-24T11:49:38;6.47;;;4.07;;
79478;SDS011;68943;49.472;17.970;2023-04-24T11:52:06;10.30;;;4.30;;
79478;SDS011;68943;49.472;17.970;2023-04-24T11:54:32;7.88;;;4.45;;
79478;SDS011;68943;49.472;17.970;2023-04-24T11:56:58;7.18;;;5.03;;
79478;SDS011;68943;49.472;17.970;2023-04-24T11:59:26;4.90;;;4.05;;
79478;SDS011;68943;49.472;17.970;2023-04-24T12:01:52;6.90;;;4.47;;
79478;SDS011;68943;49.472;17.970;2023-04-24T12:04:18;7.05;;;4.20;;
79478;SDS011;68943;49.472;17.970;2023-04-24T12:07:00;6.75;;;4.20;;
79478;SDS011;68943;49.472;17.970;2023-04-24T12:09:26;8.32;;;3.92;;
79478;SDS011;68943;49.472;17.970;2023-04-24T12:11:53;6.10;;;3.90;;
79478;SDS011;68943;49.472;17.970;2023-04-24T12:14:22;9.80;;;7.28;;
79478;SDS011;68943;49.472;17.970;2023-04-24T12:16:49;8.98;;;5.72;;
79478;SDS011;68943;49.472;17.970;2023-04-24T12:19:25;6.82;;;4.00;;
79478;SDS011;68943;49.472;17.970;2023-04-24T12:22:04;4.85;;;3.92;;
79478;SDS011;68943;49.472;17.970;2023-04-24T12:24:30;12.13;;;4.13;;
79478;SDS011;68943;49.472;17.970;2023-04-24T12:26:56;8.07;;;5.57;;
79478;SDS011;68943;49.472;17.970;2023-04-24T12:29:23;8.00;;;4.10;;
79478;SDS011;68943;49.472;17.970;2023-04-24T12:31:50;19.48;;;5.18;;
79478;SDS011;68943;49.472;17.970;2023-04-24T12:34:20;5.45;;;4.00;;
79478;SDS011;68943;49.472;17.970;2023-04-24T12:36:47;7.95;;;5.25;;
79478;SDS011;68943;49.472;17.970;2023-04-24T12:39:17;8.35;;;5.13;;
79478;SDS011;68943;49.472;17.970;2023-04-24T12:41:50;8.48;;;5.63;;
79478;SDS011;68943;49.472;17.970;2023-04-24T12:44:28;8.50;;;5.47;;
79478;SDS011;68943;49.472;17.970;2023-04-24T12:46:54;9.50;;;4.50;;
79478;SDS011;68943;49.472;17.970;2023-04-24T12:49:20;12.48;;;7.80;;
79478;SDS011;68943;49.472;17.970;2023-04-24T12:51:46;10.85;;;5.25;;
79478;SDS011;68943;49.472;17.970;2023-04-24T12:54:12;7.50;;;5.10;;
79478;SDS011;68943;49.472;17.970;2023-04-24T12:56:38;10.90;;;6.43;;
79478;SDS011;68943;49.472;17.970;2023-04-24T12:59:04;9.60;;;4.82;;
79478;SDS011;68943;49.472;17.970;2023-04-24T13:01:31;10.10;;;6.03;;
79478;SDS011;68943;49.472;17.970;2023-04-24T13:03:57;8.05;;;5.00;;
79478;SDS011;68943;49.472;17.970;2023-04-24T13:06:23;7.63;;;6.05;;
79478;SDS011;68943;49.472;17.970;2023-04-24T13:08:49;10.55;;;7.05;;
79478;SDS011;68943;49.472;17.970;2023-04-24T13:11:16;6.75;;;4.38;;
79478;SDS011;68943;49.472;17.970;2023-04-24T13:13:43;8.93;;;5.00;;
79478;SDS011;68943;49.472;17.970;2023-04-24T13:16:09;6.53;;;4.82;;
79478;SDS011;68943;49.472;17.970;2023-04-24T13:18:35;10.88;;;6.20;;
79478;SDS011;68943;49.472;17.970;2023-04-24T13:21:01;12.18;;;7.13;;
79478;SDS011;68943;49.472;17.970;2023-04-24T13:23:27;8.55;;;6.72;;
79478;SDS011;68943;49.472;17.970;2023-04-24T13:25:54;36.25;;;21.40;;
79478;SDS011;68943;49.472;17.970;2023-04-24T13:28:23;75.10;;;33.97;;
79478;SDS011;68943;49.472;17.970;2023-04-24T13:30:50;72.10;;;36.60;;
79478;SDS011;68943;49.472;17.970;2023-04-24T13:33:16;19.23;;;10.73;;
79478;SDS011;68943;49.472;17.970;2023-04-24T13:35:42;37.95;;;24.10;;
79478;SDS011;68943;49.472;17.970;2023-04-24T13:38:08;39.97;;;28.38;;
79478;SDS011;68943;49.472;17.970;2023-04-24T13:40:34;12.23;;;8.73;;
79478;SDS011;68943;49.472;17.970;2023-04-24T13:43:01;15.82;;;11.93;;
79478;SDS011;68943;49.472;17.970;2023-04-24T13:45:27;37.65;;;23.42;;
79478;SDS011;68943;49.472;17.970;2023-04-24T13:47:56;31.42;;;20.48;;
79478;SDS011;68943;49.472;17.970;2023-04-24T13:50:24;22.65;;;13.82;;
79478;SDS011;68943;49.472;17.970;2023-04-24T13:52:50;41.72;;;26.27;;
79478;SDS011;68943;49.472;17.970;2023-04-24T13:55:16;13.10;;;9.40;;
79478;SDS011;68943;49.472;17.970;2023-04-24T13:57:42;20.95;;;15.20;;
79478;SDS011;68943;49.472;17.970;2023-04-24T14:00:08;21.35;;;13.98;;
79478;SDS011;68943;49.472;17.970;2023-04-24T14:02:36;24.80;;;18.83;;
79478;SDS011;68943;49.472;17.970;2023-04-24T14:05:03;22.17;;;14.73;;
79478;SDS011;68943;49.472;17.970;2023-04-24T14:07:29;18.70;;;10.80;;
79478;SDS011;68943;49.472;17.970;2023-04-24T14:09:56;13.43;;;9.18;;
79478;SDS011;68943;49.472;17.970;2023-04-24T14:12:22;15.27;;;11.40;;
79478;SDS011;68943;49.472;17.970;2023-04-24T14:14:49;14.20;;;8.85;;
79478;SDS011;68943;49.472;17.970;2023-04-24T14:17:15;14.15;;;10.20;;
79478;SDS011;68943;49.472;17.970;2023-04-24T14:19:41;13.38;;;8.25;;
79478;SDS011;68943;49.472;17.970;2023-04-24T14:22:07;13.18;;;8.82;;
79478;SDS011;68943;49.472;17.970;2023-04-24T14:24:33;14.18;;;9.70;;
79478;SDS011;68943;49.472;17.970;2023-04-24T14:26:59;21.67;;;10.95;;
79478;SDS011;68943;49.472;17.970;2023-04-24T14:29:25;18.67;;;10.63;;
79478;SDS011;68943;49.472;17.970;2023-04-24T14:31:51;18.02;;;10.68;;
79478;SDS011;68943;49.472;17.970;2023-04-24T14:34:17;17.13;;;8.85;;
79478;SDS011;68943;49.472;17.970;2023-04-24T14:36:45;9.82;;;7.47;;
79478;SDS011;68943;49.472;17.970;2023-04-24T14:39:11;13.82;;;9.07;;
79478;SDS011;68943;49.472;17.970;2023-04-24T14:41:37;14.15;;;10.32;;
79478;SDS011;68943;49.472;17.970;2023-04-24T14:44:04;12.85;;;8.77;;